createdAt,value
2022-12-28T00:01:44.416Z,101977.06
2022-12-28T00:04:19.630Z,101976.63
2022-12-28T00:06:52.118Z,101982.41
2022-12-28T00:09:23.101Z,101976.88
2022-12-28T00:11:54.542Z,101985.25
2022-12-28T00:14:26.575Z,101993.72
2022-12-28T00:16:57.821Z,101982.78
2022-12-28T00:19:29.738Z,101989.66
2022-12-28T00:22:00.744Z,101978.06
2022-12-28T00:24:32.744Z,101970.44
2022-12-28T00:27:03.726Z,101971.31
2022-12-28T00:29:34.319Z,101974.72
2022-12-28T00:32:05.574Z,101964.97
2022-12-28T00:34:36.706Z,101959.78
2022-12-28T00:37:13.171Z,101962.31
2022-12-28T00:39:47.563Z,101964.38
2022-12-28T00:42:18.525Z,101961.41
2022-12-28T00:44:49.076Z,101964.84
2022-12-28T00:47:20.196Z,101969.78
2022-12-28T00:49:51.203Z,101971.53
2022-12-28T00:52:21.672Z,101961.47
2022-12-28T00:54:54.640Z,101973.94
2022-12-28T00:57:25.835Z,101959.69
2022-12-28T00:59:56.656Z,101961.72
2022-12-28T01:02:27.836Z,101951.66
2022-12-28T01:04:59.226Z,101951.53
2022-12-28T01:07:30.655Z,101953.84
2022-12-28T01:10:01.557Z,101948.38
2022-12-28T01:12:37.883Z,101956.03
2022-12-28T01:15:11.242Z,101947.38
2022-12-28T01:17:42.763Z,101947.56
2022-12-28T01:20:14.682Z,101940.06
2022-12-28T01:22:45.752Z,101941.53
2022-12-28T01:25:18.011Z,101941.44
2022-12-28T01:27:49.155Z,101939.50
2022-12-28T01:30:22.093Z,101940.72
2022-12-28T01:32:53.459Z,101914.03
2022-12-28T01:35:24.378Z,101944.03
2022-12-28T01:37:54.794Z,101939.91
2022-12-28T01:40:25.636Z,101924.81
2022-12-28T01:42:57.073Z,101915.31
2022-12-28T01:45:30.221Z,101914.44
2022-12-28T01:48:01.230Z,101906.34
2022-12-28T01:50:35.413Z,101915.13
2022-12-28T01:53:07.563Z,101910.09
2022-12-28T01:55:41.490Z,101907.59
2022-12-28T01:58:27.544Z,101908.19
2022-12-28T02:01:00.070Z,101899.44
2022-12-28T02:03:34.025Z,101888.22
2022-12-28T02:06:10.319Z,101904.31
2022-12-28T02:09:02.062Z,101902.81
2022-12-28T02:11:33.199Z,101895.63
2022-12-28T02:14:04.481Z,101882.59
2022-12-28T02:16:35.908Z,101883.56
2022-12-28T02:19:07.947Z,101881.72
2022-12-28T02:21:57.807Z,101874.56
2022-12-28T02:24:28.911Z,101875.94
2022-12-28T02:27:09.301Z,101875.22
2022-12-28T02:30:00.254Z,101859.38
2022-12-28T02:32:57.546Z,101848.88
2022-12-28T02:35:48.111Z,101852.38
2022-12-28T02:38:30.940Z,101849.28
2022-12-28T02:41:05.755Z,101847.94
2022-12-28T02:43:37.293Z,101849.28
2022-12-28T02:46:53.775Z,101840.38
2022-12-28T02:49:48.129Z,101836.44
2022-12-28T02:52:52.418Z,101840.25
2022-12-28T02:55:52.327Z,101836.88
2022-12-28T02:59:11.262Z,101830.41
2022-12-28T03:02:00.902Z,101838.47
2022-12-28T03:05:08.656Z,101843.09
2022-12-28T03:08:21.557Z,101843.66
2022-12-28T03:11:06.137Z,101826.94
2022-12-28T03:13:59.979Z,101826.34
2022-12-28T03:17:01.815Z,101825.97
2022-12-28T03:20:01.938Z,101819.41
2022-12-28T03:22:54.262Z,101800.78
2022-12-28T03:25:48.064Z,101810.75
2022-12-28T03:28:41.052Z,101811.50
2022-12-28T03:31:14.112Z,101807.34
2022-12-28T03:33:52.492Z,101803.41
2022-12-28T03:36:34.763Z,101811.66
2022-12-28T03:39:32.931Z,101806.06
2022-12-28T03:43:04.498Z,101808.13
2022-12-28T03:45:51.424Z,101802.84
2022-12-28T03:48:25.198Z,101797.16
2022-12-28T03:50:56.810Z,101790.72
2022-12-28T03:53:38.971Z,101791.22
2022-12-28T03:56:19.415Z,101793.63
2022-12-28T03:58:52.232Z,101795.72
2022-12-28T04:01:25.132Z,101785.88
2022-12-28T04:03:57.279Z,101777.00
2022-12-28T04:06:28.770Z,101778.09
2022-12-28T04:09:01.333Z,101772.72
2022-12-28T04:11:35.412Z,101770.03
2022-12-28T04:14:10.530Z,101779.75
2022-12-28T04:16:46.267Z,101758.38
2022-12-28T04:19:20.417Z,101766.66
2022-12-28T04:21:52.249Z,101767.25
2022-12-28T04:24:24.446Z,101760.88
2022-12-28T04:26:55.685Z,101767.59
2022-12-28T04:29:26.115Z,101764.97
2022-12-28T04:32:06.228Z,101768.28
2022-12-28T04:34:43.146Z,101761.56
2022-12-28T04:37:17.736Z,101761.09
2022-12-28T04:39:55.297Z,101759.13
2022-12-28T04:42:28.389Z,101759.34
2022-12-28T04:44:59.489Z,101757.56
2022-12-28T04:47:30.170Z,101762.88
2022-12-28T04:50:01.464Z,101759.56
2022-12-28T04:52:32.913Z,101736.53
2022-12-28T04:55:03.430Z,101766.38
2022-12-28T04:57:34.779Z,101764.97
2022-12-28T05:00:05.436Z,101765.34
2022-12-28T05:02:36.704Z,101763.59
2022-12-28T05:05:08.132Z,101762.28
2022-12-28T05:07:39.546Z,101753.00
2022-12-28T05:10:10.945Z,101756.53
2022-12-28T05:12:42.810Z,101755.16
2022-12-28T05:15:14.149Z,101761.47
2022-12-28T05:17:45.386Z,101754.75
2022-12-28T05:20:17.582Z,101759.13
2022-12-28T05:22:48.831Z,101765.16
2022-12-28T05:25:20.690Z,101763.56
2022-12-28T05:27:51.131Z,101765.00
2022-12-28T05:30:22.260Z,101770.63
2022-12-28T05:32:53.783Z,101761.91
2022-12-28T05:35:25.185Z,101755.00
2022-12-28T05:37:56.260Z,101762.72
2022-12-28T05:40:27.607Z,101775.44
2022-12-28T05:42:58.687Z,101780.88
2022-12-28T05:45:29.729Z,101791.66
2022-12-28T05:48:00.885Z,101782.03
2022-12-28T05:50:31.421Z,101774.91
2022-12-28T05:53:02.464Z,101768.56
2022-12-28T05:55:33.966Z,101769.56
2022-12-28T05:58:05.128Z,101780.88
2022-12-28T06:00:35.641Z,101781.97
2022-12-28T06:03:07.004Z,101782.22
2022-12-28T06:05:38.265Z,101776.97
2022-12-28T06:08:09.573Z,101791.38
2022-12-28T06:10:39.963Z,101800.56
2022-12-28T06:13:11.189Z,101806.59
2022-12-28T06:15:42.368Z,101814.28
2022-12-28T06:18:13.521Z,101809.78
2022-12-28T06:20:44.946Z,101824.22
2022-12-28T06:23:16.111Z,101825.75
2022-12-28T06:25:48.121Z,101841.44
2022-12-28T06:28:19.202Z,101827.47
2022-12-28T06:30:52.764Z,101835.78
2022-12-28T06:33:24.483Z,101841.53
2022-12-28T06:35:55.619Z,101846.13
2022-12-28T06:38:27.042Z,101849.41
2022-12-28T06:41:14.766Z,101850.34
2022-12-28T06:43:47.253Z,101856.38
2022-12-28T06:46:20.093Z,101867.75
2022-12-28T06:48:52.528Z,101881.94
2022-12-28T06:51:28.610Z,101881.06
2022-12-28T06:53:59.935Z,101894.59
2022-12-28T06:56:33.189Z,101894.44
2022-12-28T06:59:04.892Z,101902.78
2022-12-28T07:01:41.024Z,101907.13
2022-12-28T07:04:12.969Z,101906.66
2022-12-28T07:06:45.999Z,101914.94
2022-12-28T07:09:18.904Z,101911.72
2022-12-28T07:11:52.780Z,101918.25
2022-12-28T07:14:23.945Z,101924.91
2022-12-28T07:16:54.950Z,101930.06
2022-12-28T07:19:26.157Z,101930.75
2022-12-28T07:21:57.220Z,101942.47
2022-12-28T07:24:28.343Z,101948.59
2022-12-28T07:26:59.932Z,101952.41
2022-12-28T07:29:31.139Z,101968.22
2022-12-28T07:32:05.810Z,101965.72
2022-12-28T07:34:36.459Z,101968.75
2022-12-28T07:37:07.585Z,101966.84
2022-12-28T07:39:38.875Z,101968.66
2022-12-28T07:42:12.381Z,101975.69
2022-12-28T07:44:49.114Z,101978.75
2022-12-28T07:47:20.592Z,101977.56
2022-12-28T07:49:51.690Z,101975.38
2022-12-28T07:52:22.788Z,101962.16
2022-12-28T07:54:55.728Z,101969.03
2022-12-28T07:57:26.887Z,101970.47
2022-12-28T07:59:58.247Z,101970.94
2022-12-28T08:02:29.448Z,101974.47
2022-12-28T08:05:00.927Z,101976.31
2022-12-28T08:07:33.359Z,101989.88
2022-12-28T08:10:04.639Z,101984.06
2022-12-28T08:12:36.001Z,101985.69
2022-12-28T08:15:07.527Z,101990.13
2022-12-28T08:17:38.895Z,101995.50
2022-12-28T08:20:10.510Z,101996.66
2022-12-28T08:22:40.949Z,102014.53
2022-12-28T08:25:12.434Z,102013.22
2022-12-28T08:27:44.148Z,102013.75
2022-12-28T08:30:15.807Z,102021.72
2022-12-28T08:32:46.876Z,102022.91
2022-12-28T08:35:18.282Z,102045.03
2022-12-28T08:37:49.410Z,102046.94
2022-12-28T08:40:20.570Z,102056.84
2022-12-28T08:42:51.911Z,102065.06
2022-12-28T08:45:23.150Z,102060.94
2022-12-28T08:47:54.614Z,102077.31
2022-12-28T08:50:31.349Z,102073.28
2022-12-28T08:53:02.800Z,102085.06
2022-12-28T08:55:33.889Z,102090.28
2022-12-28T08:58:05.057Z,102085.88
2022-12-28T09:00:36.416Z,102091.91
2022-12-28T09:03:07.610Z,102099.03
2022-12-28T09:05:42.714Z,102110.84
2022-12-28T09:08:13.896Z,102108.38
2022-12-28T09:10:45.343Z,102121.75
2022-12-28T09:13:16.578Z,102117.66
2022-12-28T09:15:50.642Z,102121.22
2022-12-28T09:18:21.765Z,102133.84
2022-12-28T09:20:53.244Z,102137.16
2022-12-28T09:23:24.707Z,102133.03
2022-12-28T09:25:56.070Z,102137.69
2022-12-28T09:28:28.021Z,102145.63
2022-12-28T09:30:59.220Z,102150.81
2022-12-28T09:34:24.775Z,102139.88
2022-12-28T09:36:42.371Z,102154.13
2022-12-28T09:39:19.168Z,102156.88
2022-12-28T09:42:13.721Z,102148.09
2022-12-28T09:45:03.614Z,102154.69
2022-12-28T09:47:42.515Z,102148.63
2022-12-28T09:50:27.188Z,102157.69
2022-12-28T09:53:01.311Z,102162.06
2022-12-28T09:55:33.808Z,102174.38
2022-12-28T09:58:06.667Z,102171.88
2022-12-28T10:00:43.847Z,102163.91
2022-12-28T10:03:23.197Z,102174.88
2022-12-28T10:05:54.676Z,102170.50
2022-12-28T10:08:27.622Z,102182.22
2022-12-28T10:11:02.846Z,102176.50
2022-12-28T10:13:56.287Z,102174.28
2022-12-28T10:16:31.581Z,102165.56
2022-12-28T10:19:03.250Z,102167.72
2022-12-28T10:21:36.309Z,102162.56
2022-12-28T10:27:03.189Z,102148.88
2022-12-28T10:29:36.035Z,102144.47
2022-12-28T10:32:10.823Z,102152.34
2022-12-28T10:34:58.758Z,102142.56
2022-12-28T10:37:34.679Z,102146.91
2022-12-28T10:40:10.824Z,102136.50
2022-12-28T10:42:48.000Z,102145.22
2022-12-28T10:45:21.416Z,102153.16
2022-12-28T10:47:55.711Z,102150.13
2022-12-28T10:50:54.381Z,102141.69
2022-12-28T10:53:42.959Z,102138.66
2022-12-28T10:56:14.011Z,102137.53
2022-12-28T10:58:47.065Z,102137.56
2022-12-28T11:01:32.282Z,102150.91
2022-12-28T11:04:10.027Z,102151.38
2022-12-28T11:06:59.275Z,102146.56
2022-12-28T11:09:32.588Z,102146.44
2022-12-28T11:12:39.840Z,102147.22
2022-12-28T11:15:16.829Z,102150.22
2022-12-28T11:17:57.044Z,102150.25
2022-12-28T11:20:35.643Z,102150.59
2022-12-28T11:23:11.153Z,102149.53
2022-12-28T11:25:43.845Z,102151.22
2022-12-28T11:28:23.305Z,102150.66
2022-12-28T11:30:55.237Z,102154.47
2022-12-28T11:33:45.494Z,102155.00
2022-12-28T11:36:24.913Z,102155.84
2022-12-28T11:38:58.253Z,102158.59
2022-12-28T11:41:34.132Z,102161.09
2022-12-28T11:44:08.778Z,102164.38
2022-12-28T11:46:41.905Z,102160.75
2022-12-28T11:49:29.085Z,102161.63
2022-12-28T11:52:35.542Z,102154.78
2022-12-28T11:55:25.719Z,102153.97
2022-12-28T11:57:57.220Z,102142.44
2022-12-28T12:00:40.488Z,102152.81
2022-12-28T12:03:11.607Z,102155.56
2022-12-28T12:05:42.670Z,102154.47
2022-12-28T12:08:19.917Z,102153.38
2022-12-28T12:10:52.201Z,102152.31
2022-12-28T12:13:29.642Z,102152.31
2022-12-28T12:16:18.310Z,102139.22
2022-12-28T12:18:53.040Z,102150.16
2022-12-28T12:21:41.330Z,102141.97
2022-12-28T12:24:30.833Z,102145.75
2022-12-28T12:27:18.262Z,102144.09
2022-12-28T12:29:59.221Z,102135.91
2022-12-28T12:32:59.622Z,102145.19
2022-12-28T12:35:33.528Z,102131.03
2022-12-28T12:38:23.136Z,102129.69
2022-12-28T12:41:15.350Z,102137.63
2022-12-28T12:43:52.442Z,102131.59
2022-12-28T12:47:05.674Z,102138.94
2022-12-28T12:50:10.921Z,102141.69
2022-12-28T12:52:56.721Z,102135.13
2022-12-28T12:55:38.338Z,102137.00
2022-12-28T12:58:26.538Z,102135.91
2022-12-28T13:01:19.030Z,102135.63
2022-12-28T13:03:51.309Z,102127.69
2022-12-28T13:06:27.945Z,102131.22
2022-12-28T13:09:05.639Z,102119.47
2022-12-28T13:11:41.367Z,102121.66
2022-12-28T13:14:23.527Z,102118.84
2022-12-28T13:16:59.401Z,102127.56
2022-12-28T13:19:31.990Z,102124.63
2022-12-28T13:22:03.013Z,102127.00
2022-12-28T13:24:40.319Z,102130.22
2022-12-28T13:27:21.231Z,102117.97
2022-12-28T13:29:56.489Z,102119.81
2022-12-28T13:32:38.011Z,102120.44
2022-12-28T13:35:21.648Z,102121.63
2022-12-28T13:38:06.036Z,102123.69
2022-12-28T13:40:39.117Z,102120.41
2022-12-28T13:43:40.565Z,102127.56
2022-12-28T13:46:14.257Z,102115.34
2022-12-28T13:48:48.398Z,102115.09
2022-12-28T13:51:21.980Z,102114.84
2022-12-28T13:53:58.110Z,102114.53
2022-12-28T13:56:30.789Z,102107.94
2022-12-28T13:59:06.673Z,102122.16
2022-12-28T14:01:40.934Z,102118.53
2022-12-28T14:04:52.334Z,102122.16
2022-12-28T14:07:31.403Z,102113.97
2022-12-28T14:10:02.721Z,102123.78
2022-12-28T14:12:33.339Z,102117.44
2022-12-28T14:15:04.834Z,102126.75
2022-12-28T14:17:36.335Z,102125.44
2022-12-28T14:20:17.595Z,102121.06
2022-12-28T14:22:50.126Z,102125.59
2022-12-28T14:25:26.277Z,102119.63
2022-12-28T14:28:07.711Z,102116.47
2022-12-28T14:30:45.652Z,102119.72
2022-12-28T14:33:25.479Z,102116.31
2022-12-28T14:36:00.266Z,102105.63
2022-12-28T14:38:42.385Z,102113.59
2022-12-28T14:41:23.225Z,102116.06
2022-12-28T14:43:57.755Z,102114.44
2022-12-28T14:46:37.519Z,102099.59
2022-12-28T14:49:31.315Z,102105.09
2022-12-28T14:52:11.247Z,102117.09
2022-12-28T14:54:52.363Z,102105.34
2022-12-28T14:57:52.638Z,102108.88
2022-12-28T15:00:28.383Z,102109.72
2022-12-28T15:03:13.649Z,102108.22
2022-12-28T15:05:54.734Z,102094.22
2022-12-28T15:08:29.635Z,102108.47
2022-12-28T15:13:35.642Z,102100.47
2022-12-28T15:16:07.119Z,102100.69
2022-12-28T15:18:47.929Z,102100.69
2022-12-28T15:21:25.951Z,102106.44
2022-12-28T15:23:58.382Z,102107.25
2022-12-28T15:26:29.532Z,102107.03
2022-12-28T15:29:00.943Z,102100.41
2022-12-28T15:31:32.108Z,102100.88
2022-12-28T15:34:03.431Z,102104.66
2022-12-28T15:36:34.354Z,102103.06
2022-12-28T15:39:06.152Z,102112.06
2022-12-28T15:41:49.497Z,102111.16
2022-12-28T15:44:22.092Z,102116.72
2022-12-28T15:46:53.859Z,102118.22
2022-12-28T15:49:24.961Z,102112.22
2022-12-28T15:51:56.445Z,102113.28
2022-12-28T15:54:27.628Z,102127.22
2022-12-28T15:56:59.547Z,102114.75
2022-12-28T15:59:30.706Z,102127.28
2022-12-28T16:02:02.505Z,102130.28
2022-12-28T16:04:33.927Z,102132.97
2022-12-28T16:07:05.112Z,102127.31
2022-12-28T16:09:36.269Z,102129.50
2022-12-28T16:12:07.613Z,102131.09
2022-12-28T16:14:38.184Z,102134.38
2022-12-28T16:17:09.328Z,102132.69
2022-12-28T16:19:40.667Z,102128.81
2022-12-28T16:22:11.822Z,102124.09
2022-12-28T16:24:43.029Z,102123.38
2022-12-28T16:27:14.176Z,102119.03
2022-12-28T16:29:47.688Z,102126.44
2022-12-28T16:32:18.873Z,102121.44
2022-12-28T16:34:50.190Z,102130.22
2022-12-28T16:37:21.192Z,102129.00
2022-12-28T16:39:52.592Z,102124.16
2022-12-28T16:42:23.960Z,102126.59
2022-12-28T16:44:55.084Z,102122.91
2022-12-28T16:47:26.158Z,102132.91
2022-12-28T16:49:57.238Z,102137.19
2022-12-28T16:52:28.434Z,102130.28
2022-12-28T16:54:59.498Z,102130.03
2022-12-28T16:57:30.862Z,102127.19
2022-12-28T17:00:02.277Z,102137.31
2022-12-28T17:02:33.530Z,102139.63
2022-12-28T17:05:05.027Z,102138.53
2022-12-28T17:07:36.055Z,102129.66
2022-12-28T17:10:07.635Z,102143.06
2022-12-28T17:12:38.163Z,102138.78
2022-12-28T17:15:10.477Z,102155.03
2022-12-28T17:17:41.538Z,102144.41
2022-12-28T17:20:13.055Z,102163.03
2022-12-28T17:22:44.229Z,102156.84
2022-12-28T17:25:16.187Z,102157.94
2022-12-28T17:27:47.464Z,102161.28
2022-12-28T17:30:19.194Z,102160.97
2022-12-28T17:32:49.763Z,102160.38
2022-12-28T17:35:20.994Z,102161.78
2022-12-28T17:37:53.068Z,102166.69
2022-12-28T17:40:27.626Z,102172.88
2022-12-28T17:42:58.948Z,102183.53
2022-12-28T17:45:32.653Z,102178.63
2022-12-28T17:48:03.794Z,102181.84
2022-12-28T17:50:35.186Z,102188.94
2022-12-28T17:53:06.407Z,102179.97
2022-12-28T17:55:38.771Z,102180.38
2022-12-28T17:58:13.007Z,102185.41
2022-12-28T18:00:44.365Z,102193.78
2022-12-28T18:03:15.502Z,102182.75
2022-12-28T18:05:53.548Z,102203.84
2022-12-28T18:08:25.569Z,102200.78
2022-12-28T18:10:57.067Z,102202.22
2022-12-28T18:13:28.471Z,102198.34
2022-12-28T18:15:59.918Z,102210.53
2022-12-28T18:18:31.267Z,102200.72
2022-12-28T18:21:05.467Z,102190.03
2022-12-28T18:23:37.110Z,102198.38
2022-12-28T18:26:08.594Z,102197.41
2022-12-28T18:28:39.945Z,102199.88
2022-12-28T18:31:11.107Z,102200.94
2022-12-28T18:33:42.426Z,102207.03
2022-12-28T18:36:17.623Z,102202.66
2022-12-28T18:38:50.652Z,102210.41
2022-12-28T18:41:22.656Z,102208.78
2022-12-28T18:43:53.991Z,102204.38
2022-12-28T18:46:25.271Z,102217.38
2022-12-28T18:48:56.731Z,102216.97
2022-12-28T18:51:27.970Z,102219.41
2022-12-28T18:53:59.391Z,102217.56
2022-12-28T18:56:30.512Z,102220.94
2022-12-28T18:59:02.190Z,102231.56
2022-12-28T19:02:05.334Z,102229.59
2022-12-28T19:04:25.343Z,102229.81
2022-12-28T19:06:56.818Z,102225.25
2022-12-28T19:09:28.021Z,102232.31
2022-12-28T19:12:00.499Z,102220.31
2022-12-28T19:14:31.823Z,102234.91
2022-12-28T19:17:02.909Z,102225.88
2022-12-28T19:19:34.053Z,102226.44
2022-12-28T19:22:05.387Z,102232.88
2022-12-28T19:24:36.512Z,102225.28
2022-12-28T19:27:07.716Z,102219.19
2022-12-28T19:29:38.891Z,102242.19
2022-12-28T19:32:10.261Z,102237.19
2022-12-28T19:34:41.423Z,102239.38
2022-12-28T19:37:12.463Z,102232.94
2022-12-28T19:39:43.416Z,102243.91
2022-12-28T19:42:14.476Z,102238.22
2022-12-28T19:44:45.923Z,102243.47
2022-12-28T19:47:17.334Z,102238.53
2022-12-28T19:49:48.716Z,102242.66
2022-12-28T19:52:20.086Z,102235.16
2022-12-28T19:54:51.228Z,102245.09
2022-12-28T19:57:22.317Z,102240.28
2022-12-28T19:59:53.468Z,102248.44
2022-12-28T20:02:24.762Z,102247.41
2022-12-28T20:04:56.151Z,102246.06
2022-12-28T20:07:27.339Z,102244.16
2022-12-28T20:09:58.522Z,102242.88
2022-12-28T20:12:29.686Z,102239.50
2022-12-28T20:15:00.922Z,102241.75
2022-12-28T20:17:33.318Z,102245.81
2022-12-28T20:20:04.472Z,102238.88
2022-12-28T20:22:35.658Z,102242.47
2022-12-28T20:25:07.341Z,102235.44
2022-12-28T20:27:37.885Z,102237.91
2022-12-28T20:30:09.457Z,102229.25
2022-12-28T20:32:44.871Z,102222.03
2022-12-28T20:35:16.294Z,102239.94
2022-12-28T20:37:47.496Z,102235.47
2022-12-28T20:40:19.593Z,102236.88
2022-12-28T20:43:08.950Z,102249.81
2022-12-28T20:45:40.381Z,102243.00
2022-12-28T20:48:11.446Z,102249.41
2022-12-28T20:50:42.488Z,102244.31
2022-12-28T20:53:13.629Z,102245.81
2022-12-28T20:55:44.844Z,102248.28
2022-12-28T20:58:16.051Z,102240.03
2022-12-28T21:00:47.610Z,102252.91
2022-12-28T21:03:18.121Z,102250.19
2022-12-28T21:05:49.382Z,102257.03
2022-12-28T21:08:22.041Z,102250.44
2022-12-28T21:10:55.255Z,102250.97
2022-12-28T21:13:26.559Z,102246.09
2022-12-28T21:15:58.018Z,102246.28
2022-12-28T21:18:29.517Z,102253.06
2022-12-28T21:21:01.561Z,102251.16
2022-12-28T21:23:33.582Z,102238.00
2022-12-28T21:26:09.529Z,102232.53
2022-12-28T21:28:40.942Z,102230.38
2022-12-28T21:31:12.814Z,102239.13
2022-12-28T21:33:44.609Z,102235.13
2022-12-28T21:36:16.371Z,102230.78
2022-12-28T21:38:48.733Z,102227.47
2022-12-28T21:41:40.455Z,102219.63
2022-12-28T21:44:14.313Z,102212.41
2022-12-28T21:46:46.088Z,102223.66
2022-12-28T21:49:17.478Z,102215.88
2022-12-28T21:51:48.880Z,102209.66
2022-12-28T21:54:22.403Z,102204.13
2022-12-28T21:56:55.667Z,102201.06
2022-12-28T21:59:28.037Z,102195.81
2022-12-28T22:02:17.298Z,102198.91
2022-12-28T22:05:06.615Z,102199.56
2022-12-28T22:07:39.333Z,102192.44
2022-12-28T22:10:28.986Z,102192.06
2022-12-28T22:13:01.139Z,102187.72
2022-12-28T22:15:50.383Z,102177.63
2022-12-28T22:21:18.287Z,102168.88
2022-12-28T22:23:49.491Z,102175.16
2022-12-28T22:26:20.600Z,102162.50
2022-12-28T22:28:51.384Z,102167.00
2022-12-28T22:31:22.576Z,102156.84
2022-12-28T22:33:53.942Z,102161.47
2022-12-28T22:36:25.266Z,102158.81
2022-12-28T22:38:56.497Z,102152.84
2022-12-28T22:41:28.086Z,102139.59
2022-12-28T22:43:59.281Z,102137.31
2022-12-28T22:46:30.474Z,102150.19
2022-12-28T22:49:01.558Z,102147.41
2022-12-28T22:51:32.469Z,102139.31
2022-12-28T22:54:03.598Z,102131.97
2022-12-28T22:56:34.985Z,102130.31
2022-12-28T22:59:06.928Z,102130.59
2022-12-28T23:01:41.035Z,102112.78
2022-12-28T23:04:12.248Z,102111.44
2022-12-28T23:06:43.229Z,102104.78
2022-12-28T23:09:14.599Z,102101.22
2022-12-28T23:11:45.220Z,102109.88
2022-12-28T23:14:41.240Z,102099.16
2022-12-28T23:17:15.841Z,102089.44
2022-12-28T23:20:06.077Z,102089.59
2022-12-28T23:22:55.456Z,102089.75
2022-12-28T23:25:45.770Z,102092.19
2022-12-28T23:28:18.816Z,102084.53
2022-12-28T23:30:51.224Z,102084.66
2022-12-28T23:33:22.495Z,102085.56
2022-12-28T23:35:52.868Z,102089.09
2022-12-28T23:38:23.928Z,102080.78
2022-12-28T23:41:14.478Z,102082.03
2022-12-28T23:43:46.158Z,102073.88
2022-12-28T23:46:17.330Z,102068.88
2022-12-28T23:48:47.804Z,102061.84
2022-12-28T23:51:19.444Z,102061.13
2022-12-28T23:53:50.579Z,102060.75
2022-12-28T23:56:21.739Z,102055.00
2022-12-28T23:58:53.265Z,102049.72
